createdAt,value
2018-08-10T00:01:04.556Z,14.97
2018-08-10T00:04:03.965Z,14.40
2018-08-10T00:07:02.027Z,13.73
2018-08-10T00:10:00.031Z,14.27
2018-08-10T00:12:58.461Z,13.90
2018-08-10T00:15:56.609Z,13.90
2018-08-10T00:18:54.483Z,13.60
2018-08-10T00:21:52.740Z,13.30
2018-08-10T00:24:53.031Z,13.50
2018-08-10T00:27:51.072Z,13.10
2018-08-10T00:30:49.403Z,13.50
2018-08-10T00:33:47.601Z,12.90
2018-08-10T00:36:45.764Z,13.10
2018-08-10T00:39:44.969Z,13.20
2018-08-10T00:42:43.384Z,12.80
2018-08-10T00:45:42.309Z,13.10
2018-08-10T00:48:41.537Z,13.10
2018-08-10T00:51:39.586Z,12.10
2018-08-10T00:54:37.767Z,12.50
2018-08-10T00:57:36.990Z,13.20
2018-08-10T01:00:38.355Z,12.20
2018-08-10T01:03:37.004Z,12.03
2018-08-10T01:06:35.125Z,12.30
2018-08-10T01:09:33.920Z,12.43
2018-08-10T01:12:32.669Z,11.93
2018-08-10T01:15:32.641Z,12.77
2018-08-10T01:18:31.724Z,12.23
2018-08-10T01:21:30.889Z,11.73
2018-08-10T01:24:28.948Z,12.10
2018-08-10T01:27:32.889Z,12.00
2018-08-10T01:30:32.031Z,12.17
2018-08-10T01:33:31.130Z,11.67
2018-08-10T01:36:29.188Z,11.97
2018-08-10T01:39:30.201Z,12.13
2018-08-10T01:42:28.597Z,11.87
2018-08-10T01:45:27.038Z,12.17
2018-08-10T01:48:25.025Z,11.30
2018-08-10T01:51:23.407Z,11.43
2018-08-10T01:54:21.936Z,11.40
2018-08-10T01:57:21.220Z,12.27
2018-08-10T02:00:21.259Z,11.63
2018-08-10T02:03:20.499Z,11.70
2018-08-10T02:06:18.669Z,12.23
2018-08-10T02:09:17.861Z,11.37
2018-08-10T02:12:16.337Z,11.70
2018-08-10T02:15:14.499Z,12.43
2018-08-10T02:18:15.013Z,12.30
2018-08-10T02:21:13.266Z,12.63
2018-08-10T02:24:11.344Z,13.07
2018-08-10T02:27:09.805Z,13.07
2018-08-10T02:30:09.320Z,12.63
2018-08-10T02:33:07.572Z,13.90
2018-08-10T02:36:05.541Z,13.33
2018-08-10T02:39:03.776Z,13.37
2018-08-10T02:42:01.937Z,13.47
2018-08-10T02:45:00.411Z,13.00
2018-08-10T02:47:59.722Z,14.07
2018-08-10T02:50:57.975Z,14.10
2018-08-10T02:53:56.850Z,13.20
2018-08-10T02:56:56.356Z,14.37
2018-08-10T02:59:55.515Z,14.60
2018-08-10T03:02:54.707Z,12.97
2018-08-10T03:05:53.058Z,13.87
2018-08-10T03:08:51.249Z,15.20
2018-08-10T03:11:50.738Z,14.65
2018-08-10T03:14:49.761Z,14.30
2018-08-10T03:17:47.788Z,14.40
2018-08-10T03:20:45.936Z,13.73
2018-08-10T03:23:45.409Z,11.97
2018-08-10T03:26:43.926Z,11.00
2018-08-10T03:29:43.399Z,10.50
2018-08-10T03:32:41.741Z,10.10
2018-08-10T03:35:39.897Z,9.40
2018-08-10T03:38:38.328Z,9.53
2018-08-10T03:41:36.544Z,9.20
2018-08-10T03:44:34.821Z,8.10
2018-08-10T03:47:37.363Z,8.60
2018-08-10T03:50:35.339Z,9.63
2018-08-10T03:53:33.597Z,10.17
2018-08-10T03:56:31.770Z,10.90
2018-08-10T03:59:29.722Z,10.27
2018-08-10T04:02:27.991Z,10.13
2018-08-10T04:05:26.033Z,10.53
2018-08-10T04:08:24.197Z,10.63
2018-08-10T04:11:22.516Z,9.70
2018-08-10T04:14:20.549Z,7.60
2018-08-10T04:17:24.294Z,6.13
2018-08-10T04:20:22.060Z,4.87
2018-08-10T04:23:21.655Z,4.80
2018-08-10T04:26:22.432Z,4.57
2018-08-10T04:29:20.848Z,4.00
2018-08-10T04:32:19.332Z,3.90
2018-08-10T04:35:18.518Z,3.30
2018-08-10T04:38:16.553Z,3.30
2018-08-10T04:41:14.839Z,3.43
2018-08-10T04:44:13.375Z,3.00
2018-08-10T04:47:11.558Z,3.37
2018-08-10T04:50:09.929Z,3.33
2018-08-10T04:53:08.200Z,3.90
2018-08-10T04:56:06.373Z,3.57
2018-08-10T04:59:04.529Z,3.50
2018-08-10T05:02:02.788Z,2.83
2018-08-10T05:05:00.855Z,3.17
2018-08-10T05:13:27.358Z,3.07
2018-08-10T05:16:25.565Z,2.60
2018-08-10T05:19:23.802Z,3.00
2018-08-10T05:22:22.064Z,2.70
2018-08-10T05:25:20.037Z,2.60
2018-08-10T05:28:18.600Z,2.77
2018-08-10T05:31:18.007Z,3.13
2018-08-10T05:34:16.158Z,2.67
2018-08-10T05:37:14.604Z,2.60
2018-08-10T05:40:12.736Z,1.90
2018-08-10T05:43:11.155Z,2.50
2018-08-10T05:46:09.096Z,2.50
2018-08-10T05:49:07.173Z,2.67
2018-08-10T05:52:04.933Z,2.60
2018-08-10T05:55:03.195Z,3.10
2018-08-10T05:58:01.555Z,2.53
2018-08-10T06:00:59.731Z,2.50
2018-08-10T06:03:58.321Z,2.57
2018-08-10T06:06:56.000Z,2.13
2018-08-10T06:09:54.328Z,2.23
2018-08-10T06:12:52.545Z,2.40
2018-08-10T06:15:50.485Z,2.70
2018-08-10T06:18:48.608Z,2.60
2018-08-10T06:21:46.973Z,2.60
2018-08-10T06:24:45.548Z,3.87
2018-08-10T06:27:43.832Z,3.10
2018-08-10T06:30:42.874Z,2.80
2018-08-10T06:33:41.793Z,3.33
2018-08-10T06:36:41.256Z,2.60
2018-08-10T06:39:39.525Z,2.53
2018-08-10T06:42:37.745Z,2.67
2018-08-10T06:45:36.343Z,2.90
2018-08-10T06:48:34.222Z,2.77
2018-08-10T06:51:32.337Z,4.47
2018-08-10T06:54:30.720Z,3.00
2018-08-10T06:57:28.594Z,2.37
2018-08-10T07:00:26.611Z,2.70
2018-08-10T07:03:24.825Z,2.40
2018-08-10T07:06:22.866Z,2.60
2018-08-10T07:09:22.058Z,2.60
2018-08-10T07:12:20.233Z,3.20
2018-08-10T07:15:18.490Z,3.53
2018-08-10T07:18:16.519Z,2.50
2018-08-10T07:24:36.221Z,2.80
2018-08-10T07:27:34.669Z,2.93
2018-08-10T07:30:33.046Z,2.77
2018-08-10T07:33:31.252Z,2.50
2018-08-10T07:36:29.473Z,2.80
2018-08-10T07:39:30.115Z,3.23
2018-08-10T07:42:28.461Z,2.60
2018-08-10T07:45:28.049Z,2.23
2018-08-10T07:48:26.513Z,2.40
2018-08-10T07:51:28.203Z,3.40
2018-08-10T07:54:27.449Z,3.00
2018-08-10T07:57:25.713Z,2.17
2018-08-10T08:00:23.931Z,2.00
2018-08-10T08:03:23.294Z,2.60
2018-08-10T08:06:22.240Z,2.00
2018-08-10T08:09:22.363Z,2.00
2018-08-10T08:12:22.238Z,1.97
2018-08-10T08:15:21.225Z,2.00
2018-08-10T08:18:20.427Z,2.07
2018-08-10T08:21:24.430Z,2.47
2018-08-10T08:24:23.612Z,2.47
2018-08-10T08:27:23.005Z,2.37
2018-08-10T08:30:23.187Z,2.17
2018-08-10T08:33:21.565Z,2.20
2018-08-10T08:36:19.722Z,1.90
2018-08-10T08:41:30.516Z,1.80
2018-08-10T08:46:16.525Z,1.93
2018-08-10T08:49:14.486Z,2.47
2018-08-10T08:52:13.151Z,2.53
2018-08-10T08:55:36.097Z,2.37
2018-08-10T08:58:35.098Z,2.23
2018-08-10T09:01:33.545Z,2.47
2018-08-10T09:05:10.288Z,2.10
2018-08-10T09:08:08.656Z,2.63
2018-08-10T09:11:08.045Z,1.90
2018-08-10T09:15:16.073Z,2.10
2018-08-10T09:18:14.170Z,2.10
2018-08-10T09:21:12.424Z,1.80
2018-08-10T09:24:10.597Z,2.10
2018-08-10T09:27:10.174Z,2.13
2018-08-10T09:30:09.259Z,1.90
2018-08-10T09:33:07.710Z,1.50
2018-08-10T09:36:07.197Z,1.53
2018-08-10T09:39:05.181Z,1.93
2018-08-10T09:42:03.748Z,2.00
2018-08-10T09:45:02.643Z,3.10
2018-08-10T09:48:01.221Z,2.00
2018-08-10T09:51:00.709Z,1.80
2018-08-10T09:53:59.245Z,2.10
2018-08-10T09:56:57.287Z,1.83
2018-08-10T09:59:56.036Z,1.83
2018-08-10T10:03:01.045Z,2.20
2018-08-10T10:06:00.311Z,2.07
2018-08-10T10:08:59.377Z,2.17
2018-08-10T10:11:57.753Z,1.97
2018-08-10T10:14:57.123Z,2.10
2018-08-10T10:17:56.128Z,2.07
2018-08-10T10:20:57.608Z,1.63
2018-08-10T10:23:55.911Z,1.63
2018-08-10T10:26:55.116Z,1.77
2018-08-10T10:29:53.076Z,1.80
2018-08-10T10:32:51.833Z,2.70
2018-08-10T10:35:50.622Z,2.57
2018-08-10T10:38:48.885Z,2.10
2018-08-10T10:41:47.226Z,2.13
2018-08-10T10:44:45.048Z,2.30
2018-08-10T10:47:43.083Z,2.30
2018-08-10T10:50:41.639Z,2.50
2018-08-10T10:53:39.812Z,2.50
2018-08-10T10:56:39.040Z,2.30
2018-08-10T10:59:37.177Z,2.13
2018-08-10T11:02:35.223Z,2.27
2018-08-10T11:05:33.375Z,2.83
2018-08-10T11:08:31.508Z,3.17
2018-08-10T11:11:29.810Z,2.47
2018-08-10T11:14:28.454Z,2.87
2018-08-10T11:17:26.468Z,2.40
2018-08-10T11:20:26.634Z,3.00
2018-08-10T11:23:31.570Z,3.10
2018-08-10T11:26:29.606Z,3.80
2018-08-10T11:29:27.673Z,3.53
2018-08-10T11:32:26.031Z,2.83
2018-08-10T11:35:23.840Z,3.27
2018-08-10T11:38:21.955Z,2.80
2018-08-10T11:41:20.890Z,2.50
2018-08-10T11:44:18.904Z,3.00
2018-08-10T11:47:17.172Z,3.10
2018-08-10T11:50:15.413Z,2.77
2018-08-10T11:53:13.281Z,2.97
2018-08-10T11:56:12.462Z,3.23
2018-08-10T11:59:11.661Z,2.90
2018-08-10T12:02:10.307Z,3.90
2018-08-10T12:05:08.396Z,3.83
2018-08-10T12:08:06.829Z,2.67
2018-08-10T12:11:04.803Z,2.43
2018-08-10T12:14:03.187Z,2.73
2018-08-10T12:17:01.640Z,3.00
2018-08-10T12:19:59.904Z,2.13
2018-08-10T12:22:58.018Z,2.13
2018-08-10T12:25:56.148Z,2.07
2018-08-10T12:28:55.408Z,2.37
2018-08-10T12:31:53.683Z,2.17
2018-08-10T12:34:52.982Z,2.27
2018-08-10T12:37:51.131Z,2.37
2018-08-10T12:40:49.236Z,2.60
2018-08-10T12:43:48.331Z,21.73
2018-08-10T12:46:47.152Z,3.83
2018-08-10T12:49:44.784Z,21.90
2018-08-10T12:52:43.357Z,9.27
2018-08-10T12:55:41.662Z,2.73
2018-08-10T12:58:40.310Z,14.10
2018-08-10T13:01:39.003Z,2.70
2018-08-10T13:04:37.567Z,2.63
2018-08-10T13:07:35.952Z,2.80
2018-08-10T13:10:35.374Z,2.30
2018-08-10T13:13:35.831Z,2.90
2018-08-10T13:16:33.726Z,3.10
2018-08-10T13:19:32.169Z,3.30
2018-08-10T13:22:30.636Z,2.80
2018-08-10T13:25:30.034Z,3.60
2018-08-10T13:28:28.997Z,3.47
2018-08-10T13:31:27.554Z,3.63
2018-08-10T13:34:26.585Z,3.60
2018-08-10T13:37:24.911Z,3.77
2018-08-10T13:40:23.133Z,4.03
2018-08-10T13:43:21.244Z,4.23
2018-08-10T13:46:21.028Z,4.13
2018-08-10T13:49:20.752Z,4.03
2018-08-10T13:52:19.320Z,4.20
2018-08-10T13:55:17.989Z,4.00
2018-08-10T13:58:16.665Z,4.83
2018-08-10T14:01:15.329Z,4.23
2018-08-10T14:04:13.711Z,4.17
2018-08-10T14:07:12.615Z,4.70
2018-08-10T14:10:11.452Z,4.50
2018-08-10T14:13:10.009Z,4.57
2018-08-10T14:16:08.791Z,5.20
2018-08-10T14:19:07.366Z,4.10
2018-08-10T14:22:06.580Z,4.70
2018-08-10T14:25:04.633Z,3.77
2018-08-10T14:28:03.780Z,3.17
2018-08-10T14:31:02.180Z,3.00
2018-08-10T14:34:01.438Z,2.73
2018-08-10T14:36:59.711Z,3.17
2018-08-10T14:39:57.689Z,2.60
2018-08-10T14:42:55.956Z,3.20
2018-08-10T14:45:54.317Z,2.97
2018-08-10T14:48:52.949Z,3.30
2018-08-10T14:51:52.312Z,3.10
2018-08-10T14:54:50.537Z,3.07
2018-08-10T14:57:50.734Z,3.17
2018-08-10T15:00:48.988Z,3.53
2018-08-10T15:03:47.167Z,3.43
2018-08-10T15:06:46.368Z,3.63
2018-08-10T15:09:45.355Z,3.47
2018-08-10T15:12:43.628Z,3.53
2018-08-10T15:15:41.579Z,2.93
2018-08-10T15:18:39.904Z,3.33
2018-08-10T15:21:39.311Z,3.60
2018-08-10T15:24:38.000Z,3.60
2018-08-10T15:27:36.269Z,3.67
2018-08-10T15:30:37.766Z,3.62
2018-08-10T15:33:36.147Z,2.90
2018-08-10T15:36:34.740Z,2.00
2018-08-10T15:39:33.083Z,1.80
2018-08-10T15:42:31.420Z,2.10
2018-08-10T15:45:30.971Z,2.07
2018-08-10T15:48:29.435Z,1.83
2018-08-10T15:51:28.314Z,1.83
2018-08-10T15:54:26.403Z,1.73
2018-08-10T15:57:25.829Z,1.90
2018-08-10T16:00:27.296Z,1.90
2018-08-10T16:03:25.593Z,1.90
2018-08-10T16:06:23.834Z,1.70
2018-08-10T16:09:23.228Z,1.80
2018-08-10T16:12:21.261Z,1.80
2018-08-10T16:15:24.249Z,1.77
2018-08-10T16:18:23.352Z,1.50
2018-08-10T16:21:21.724Z,1.80
2018-08-10T16:24:20.168Z,1.80
2018-08-10T16:27:19.413Z,1.90
2018-08-10T16:30:19.564Z,1.83
2018-08-10T16:33:17.627Z,1.70
2018-08-10T16:36:15.905Z,2.00
2018-08-10T16:39:14.555Z,1.80
2018-08-10T16:42:13.284Z,1.90
2018-08-10T16:45:11.709Z,1.80
2018-08-10T16:48:09.876Z,1.50
2018-08-10T16:51:08.336Z,1.70
2018-08-10T16:54:06.093Z,1.77
2018-08-10T16:57:04.550Z,1.60
2018-08-10T17:00:02.517Z,1.57
2018-08-10T17:03:00.696Z,1.50
2018-08-10T17:05:58.650Z,1.80
2018-08-10T17:08:56.933Z,1.30
2018-08-10T17:11:56.666Z,1.40
2018-08-10T17:14:55.172Z,1.43
2018-08-10T17:17:54.473Z,1.30
2018-08-10T17:20:52.820Z,1.30
2018-08-10T17:23:42.532Z,1.50
2018-08-10T17:26:40.965Z,1.20
2018-08-10T17:29:39.239Z,1.30
2018-08-10T17:32:37.389Z,1.10
2018-08-10T17:35:36.745Z,1.50
2018-08-10T17:38:35.813Z,1.43
2018-08-10T17:41:34.128Z,1.60
2018-08-10T17:44:33.783Z,1.70
2018-08-10T17:47:31.766Z,1.70
2018-08-10T17:50:32.397Z,1.50
2018-08-10T17:53:30.888Z,1.50
2018-08-10T17:56:29.655Z,1.50
2018-08-10T17:59:28.198Z,1.73
2018-08-10T18:02:27.053Z,2.03
2018-08-10T18:05:26.610Z,2.30
2018-08-10T18:08:25.380Z,2.40
2018-08-10T18:11:24.206Z,2.33
2018-08-10T18:14:28.828Z,2.70
2018-08-10T18:17:28.240Z,2.90
2018-08-10T18:20:29.382Z,2.27
2018-08-10T18:23:27.645Z,1.90
2018-08-10T18:26:26.226Z,2.23
2018-08-10T18:29:25.725Z,2.10
2018-08-10T18:32:24.625Z,1.80
2018-08-10T18:35:23.990Z,2.20
2018-08-10T18:38:23.294Z,1.93
2018-08-10T18:41:21.616Z,1.73
2018-08-10T18:44:19.897Z,2.10
2018-08-10T18:47:18.172Z,1.87
2018-08-10T18:50:18.595Z,1.90
2018-08-10T18:53:17.535Z,2.23
2018-08-10T18:56:16.037Z,1.83
2018-08-10T18:59:13.975Z,2.03
2018-08-10T19:02:12.746Z,1.90
2018-08-10T19:05:10.730Z,2.00
2018-08-10T19:08:08.677Z,2.00
2018-08-10T19:11:08.239Z,2.10
2018-08-10T19:14:06.329Z,3.00
2018-08-10T19:17:04.300Z,3.30
2018-08-10T19:20:02.938Z,3.53
2018-08-10T19:23:01.462Z,2.97
2018-08-10T19:25:59.890Z,3.30
2018-08-10T19:28:58.348Z,2.80
2018-08-10T19:31:56.838Z,2.40
2018-08-10T19:34:55.529Z,2.53
2018-08-10T19:37:53.688Z,2.93
2018-08-10T19:40:51.625Z,2.10
2018-08-10T19:43:50.824Z,2.23
2018-08-10T19:46:49.135Z,2.27
2018-08-10T19:49:47.740Z,2.90
2018-08-10T19:52:47.335Z,2.67
2018-08-10T19:55:45.217Z,2.60
2018-08-10T19:58:44.089Z,2.40
2018-08-10T20:01:42.769Z,2.50
2018-08-10T20:04:41.149Z,2.87
2018-08-10T20:07:38.969Z,2.27
2018-08-10T20:10:38.450Z,2.47
2018-08-10T20:13:37.149Z,2.63
2018-08-10T20:16:35.536Z,2.73
2018-08-10T20:19:33.698Z,3.23
2018-08-10T20:22:36.286Z,3.20
2018-08-10T20:25:34.240Z,3.00
2018-08-10T20:28:35.437Z,2.80
2018-08-10T20:31:34.481Z,3.10
2018-08-10T20:34:34.418Z,2.90
2018-08-10T20:37:33.982Z,2.93
2018-08-10T20:40:34.096Z,2.63
2018-08-10T20:43:33.358Z,3.10
2018-08-10T20:46:31.316Z,3.30
2018-08-10T20:49:29.515Z,3.20
2018-08-10T20:52:27.676Z,3.30
2018-08-10T20:55:26.554Z,3.07
2018-08-10T20:58:25.736Z,3.40
2018-08-10T21:01:24.174Z,3.37
2018-08-10T21:04:22.131Z,3.10
2018-08-10T21:07:20.262Z,3.30
2018-08-10T21:10:20.428Z,3.40
2018-08-10T21:13:18.490Z,4.10
2018-08-10T21:16:16.943Z,3.33
2018-08-10T21:19:16.264Z,3.60
2018-08-10T21:22:14.316Z,3.77
2018-08-10T21:25:13.686Z,3.37
2018-08-10T21:28:13.125Z,4.17
2018-08-10T21:31:11.508Z,3.87
2018-08-10T21:34:10.720Z,3.63
2018-08-10T21:37:08.928Z,3.93
2018-08-10T21:40:07.046Z,3.97
2018-08-10T21:43:06.579Z,3.63
2018-08-10T21:46:05.969Z,3.80
2018-08-10T21:49:05.127Z,3.87
2018-08-10T21:52:03.094Z,4.13
2018-08-10T21:55:01.273Z,3.77
2018-08-10T21:57:59.356Z,3.53
2018-08-10T22:01:05.666Z,3.70
2018-08-10T22:04:03.841Z,3.60
2018-08-10T22:07:02.027Z,3.90
2018-08-10T22:10:00.074Z,3.20
2018-08-10T22:12:58.239Z,3.63
2018-08-10T22:16:02.823Z,4.00
2018-08-10T22:19:06.912Z,4.00
2018-08-10T22:22:06.049Z,3.80
2018-08-10T22:25:04.156Z,3.60
2018-08-10T22:28:02.626Z,3.70
2018-08-10T22:31:00.492Z,3.80
2018-08-10T22:33:59.060Z,4.13
2018-08-10T22:36:57.432Z,4.00
2018-08-10T22:39:56.530Z,4.00
2018-08-10T22:42:55.085Z,4.17
2018-08-10T22:45:53.393Z,4.73
2018-08-10T22:48:51.624Z,4.27
2018-08-10T22:51:51.244Z,3.75
2018-08-10T22:54:49.820Z,4.90
2018-08-10T22:57:49.066Z,4.90
2018-08-10T23:00:49.080Z,4.43
2018-08-10T23:03:47.842Z,4.27
2018-08-10T23:06:46.965Z,4.80
2018-08-10T23:09:45.777Z,4.70
2018-08-10T23:12:44.010Z,4.67
2018-08-10T23:15:42.133Z,4.10
2018-08-10T23:18:40.364Z,4.40
2018-08-10T23:21:38.780Z,4.57
2018-08-10T23:24:36.925Z,4.00
2018-08-10T23:27:36.325Z,3.90
2018-08-10T23:30:34.630Z,4.70
2018-08-10T23:33:33.337Z,4.73
2018-08-10T23:36:32.676Z,4.83
2018-08-10T23:39:32.226Z,5.10
2018-08-10T23:42:30.204Z,4.53
2018-08-10T23:45:29.600Z,4.60
2018-08-10T23:48:27.529Z,5.57
2018-08-10T23:51:25.743Z,4.80
2018-08-10T23:54:23.951Z,5.53
2018-08-10T23:57:23.861Z,5.43
